createdAt,value
2018-07-31T00:02:18.888Z,21.39
2018-07-31T00:04:47.287Z,21.31
2018-07-31T00:07:15.760Z,21.21
2018-07-31T00:09:44.203Z,21.24
2018-07-31T00:12:12.803Z,21.44
2018-07-31T00:14:41.459Z,21.31
2018-07-31T00:17:09.935Z,21.31
2018-07-31T00:19:38.322Z,21.08
2018-07-31T00:22:06.991Z,21.03
2018-07-31T00:24:35.458Z,21.03
2018-07-31T00:27:03.959Z,21.07
2018-07-31T00:29:32.505Z,21.06
2018-07-31T00:32:00.920Z,21.04
2018-07-31T00:34:29.377Z,20.99
2018-07-31T00:36:57.862Z,21.00
2018-07-31T00:39:26.356Z,20.81
2018-07-31T00:41:54.816Z,20.84
2018-07-31T00:44:23.551Z,20.87
2018-07-31T00:46:51.952Z,20.78
2018-07-31T00:49:20.410Z,20.82
2018-07-31T00:51:49.088Z,20.74
2018-07-31T00:54:17.499Z,20.56
2018-07-31T00:56:45.987Z,20.67
2018-07-31T00:59:14.875Z,20.76
2018-07-31T01:01:43.331Z,20.67
2018-07-31T01:04:11.782Z,20.61
2018-07-31T01:06:42.438Z,20.67
2018-07-31T01:09:12.307Z,20.63
2018-07-31T01:11:41.095Z,20.71
2018-07-31T01:14:10.342Z,20.43
2018-07-31T01:16:40.367Z,20.61
2018-07-31T01:19:09.367Z,20.51
2018-07-31T01:21:37.803Z,20.49
2018-07-31T01:24:06.767Z,20.48
2018-07-31T01:26:35.219Z,20.47
2018-07-31T01:29:03.648Z,20.41
2018-07-31T01:31:32.111Z,20.06
2018-07-31T01:34:00.614Z,20.14
2018-07-31T01:36:29.099Z,20.14
2018-07-31T01:38:57.763Z,20.30
2018-07-31T01:41:26.545Z,20.21
2018-07-31T01:43:54.983Z,20.18
2018-07-31T01:46:23.451Z,20.29
2018-07-31T01:48:51.883Z,20.19
2018-07-31T01:51:20.345Z,20.15
2018-07-31T01:53:48.752Z,20.11
2018-07-31T01:56:17.731Z,20.06
2018-07-31T01:58:46.143Z,20.13
2018-07-31T02:01:14.795Z,20.07
2018-07-31T02:03:43.243Z,20.13
2018-07-31T02:06:11.793Z,20.17
2018-07-31T02:08:40.224Z,20.07
2018-07-31T02:11:08.743Z,19.86
2018-07-31T02:13:37.173Z,20.03
2018-07-31T02:16:05.883Z,19.86
2018-07-31T02:18:34.486Z,19.88
2018-07-31T02:21:02.988Z,20.26
2018-07-31T02:23:31.504Z,19.98
2018-07-31T02:26:00.151Z,20.03
2018-07-31T02:28:28.708Z,19.96
2018-07-31T02:30:57.171Z,19.89
2018-07-31T02:33:25.739Z,19.82
2018-07-31T02:35:54.170Z,19.91
2018-07-31T02:38:22.563Z,19.83
2018-07-31T02:40:51.227Z,19.61
2018-07-31T02:43:19.763Z,19.60
2018-07-31T02:45:48.230Z,19.63
2018-07-31T02:48:16.679Z,19.78
2018-07-31T02:50:45.059Z,19.53
2018-07-31T02:53:13.496Z,19.56
2018-07-31T02:55:42.186Z,19.43
2018-07-31T02:58:10.666Z,19.54
2018-07-31T03:00:39.312Z,19.53
2018-07-31T03:03:07.987Z,19.49
2018-07-31T03:05:36.469Z,19.50
2018-07-31T03:08:04.986Z,19.55
2018-07-31T03:10:33.445Z,19.61
2018-07-31T03:13:01.879Z,19.48
2018-07-31T03:15:30.354Z,19.47
2018-07-31T03:17:58.977Z,19.53
2018-07-31T03:20:27.455Z,19.47
2018-07-31T03:22:55.950Z,19.44
2018-07-31T03:25:24.536Z,19.27
2018-07-31T03:27:52.939Z,19.34
2018-07-31T03:30:21.332Z,19.35
2018-07-31T03:32:49.914Z,19.36
2018-07-31T03:35:18.311Z,19.56
2018-07-31T03:37:46.707Z,19.49
2018-07-31T03:40:15.150Z,19.20
2018-07-31T03:42:43.603Z,19.33
2018-07-31T03:45:12.010Z,19.16
2018-07-31T03:47:40.432Z,19.64
2018-07-31T03:50:08.951Z,19.50
2018-07-31T03:52:37.416Z,19.65
2018-07-31T03:55:06.079Z,19.55
2018-07-31T03:57:34.542Z,19.40
2018-07-31T04:00:03.117Z,19.33
2018-07-31T04:02:31.731Z,19.17
2018-07-31T04:05:00.147Z,19.14
2018-07-31T04:07:29.132Z,19.18
2018-07-31T04:09:57.605Z,19.25
2018-07-31T04:12:26.043Z,19.37
2018-07-31T04:14:54.551Z,19.46
2018-07-31T04:17:23.079Z,19.42
2018-07-31T04:19:51.544Z,19.47
2018-07-31T04:22:20.035Z,19.49
2018-07-31T04:24:48.502Z,19.52
2018-07-31T04:27:17.000Z,19.28
2018-07-31T04:29:45.410Z,19.35
2018-07-31T04:32:14.235Z,19.52
2018-07-31T04:34:42.690Z,19.52
2018-07-31T04:37:11.092Z,19.62
2018-07-31T04:39:39.626Z,19.61
2018-07-31T04:42:08.072Z,19.87
2018-07-31T04:44:36.587Z,19.98
2018-07-31T04:47:06.392Z,20.08
2018-07-31T04:49:34.919Z,20.30
2018-07-31T04:52:03.379Z,20.31
2018-07-31T04:54:32.016Z,20.59
2018-07-31T04:57:01.032Z,21.29
2018-07-31T04:59:29.535Z,21.79
2018-07-31T05:01:58.091Z,22.50
2018-07-31T05:04:26.602Z,22.84
2018-07-31T05:06:54.955Z,23.33
2018-07-31T05:09:23.850Z,23.45
2018-07-31T05:11:52.249Z,23.86
2018-07-31T05:14:20.659Z,23.93
2018-07-31T05:16:49.347Z,24.11
2018-07-31T05:19:17.739Z,24.01
2018-07-31T05:21:46.259Z,24.48
2018-07-31T05:24:14.754Z,24.65
2018-07-31T05:26:43.222Z,24.52
2018-07-31T05:29:11.605Z,24.70
2018-07-31T05:31:40.055Z,25.08
2018-07-31T05:34:08.524Z,24.97
2018-07-31T05:36:36.952Z,25.11
2018-07-31T05:39:08.867Z,25.27
2018-07-31T05:41:37.399Z,25.42
2018-07-31T05:44:06.283Z,25.86
2018-07-31T05:46:34.864Z,25.93
2018-07-31T05:49:03.689Z,25.97
2018-07-31T05:51:32.117Z,26.22
2018-07-31T05:54:00.745Z,26.24
2018-07-31T05:56:29.266Z,25.89
2018-07-31T05:58:57.678Z,26.44
2018-07-31T06:01:26.335Z,26.34
2018-07-31T06:03:54.875Z,26.43
2018-07-31T06:06:23.400Z,26.74
2018-07-31T06:08:52.199Z,26.90
2018-07-31T06:11:20.722Z,26.58
2018-07-31T06:13:49.131Z,26.84
2018-07-31T06:16:17.783Z,27.06
2018-07-31T06:18:46.225Z,26.57
2018-07-31T06:21:14.679Z,26.57
2018-07-31T06:23:43.268Z,26.99
2018-07-31T06:26:11.647Z,26.90
2018-07-31T06:28:40.083Z,26.92
2018-07-31T06:31:08.591Z,26.73
2018-07-31T06:33:37.099Z,26.88
2018-07-31T06:36:05.508Z,26.52
2018-07-31T06:38:34.091Z,26.42
2018-07-31T06:41:02.884Z,26.45
2018-07-31T06:43:31.413Z,26.81
2018-07-31T06:45:59.855Z,26.80
2018-07-31T06:48:28.247Z,26.95
2018-07-31T06:50:57.791Z,27.03
2018-07-31T06:53:26.527Z,27.14
2018-07-31T06:55:54.983Z,26.78
2018-07-31T06:58:23.387Z,27.15
2018-07-31T07:00:51.927Z,26.95
2018-07-31T07:03:20.339Z,27.40
2018-07-31T07:05:48.882Z,27.34
2018-07-31T07:08:17.610Z,27.35
2018-07-31T07:10:46.051Z,27.64
2018-07-31T07:13:14.442Z,27.86
2018-07-31T07:15:43.407Z,27.71
2018-07-31T07:18:11.827Z,28.10
2018-07-31T07:20:40.309Z,27.87
2018-07-31T07:23:08.988Z,27.70
2018-07-31T07:25:37.367Z,27.50
2018-07-31T07:28:05.913Z,27.35
2018-07-31T07:30:34.551Z,27.62
2018-07-31T07:33:02.959Z,27.98
2018-07-31T07:35:31.350Z,28.41
2018-07-31T07:37:59.907Z,28.23
2018-07-31T07:40:28.299Z,28.43
2018-07-31T07:42:56.831Z,28.51
2018-07-31T07:45:25.543Z,29.07
2018-07-31T07:47:53.979Z,29.15
2018-07-31T07:50:22.435Z,29.49
2018-07-31T07:52:51.363Z,29.75
2018-07-31T07:55:19.831Z,29.83
2018-07-31T07:57:48.387Z,29.94
2018-07-31T08:00:17.049Z,30.37
2018-07-31T08:02:45.508Z,30.59
2018-07-31T08:05:13.963Z,29.79
2018-07-31T08:07:42.424Z,29.93
2018-07-31T08:10:10.896Z,29.87
2018-07-31T08:12:39.416Z,29.98
2018-07-31T08:15:08.292Z,30.09
2018-07-31T08:17:36.587Z,30.74
2018-07-31T08:20:06.254Z,30.35
2018-07-31T08:22:34.983Z,30.48
2018-07-31T08:25:03.478Z,30.75
2018-07-31T08:27:31.921Z,31.03
2018-07-31T08:30:00.472Z,31.40
2018-07-31T08:32:28.907Z,31.02
2018-07-31T08:34:57.386Z,31.49
2018-07-31T08:37:25.944Z,31.72
2018-07-31T08:39:54.370Z,31.32
2018-07-31T08:42:22.851Z,31.61
2018-07-31T08:44:51.627Z,31.73
2018-07-31T08:47:20.298Z,32.19
2018-07-31T08:49:48.663Z,31.95
2018-07-31T08:52:17.375Z,31.80
2018-07-31T08:54:45.823Z,32.15
2018-07-31T08:57:14.311Z,32.02
2018-07-31T08:59:42.815Z,32.59
2018-07-31T09:02:11.353Z,33.02
2018-07-31T09:04:39.846Z,33.05
2018-07-31T09:07:08.285Z,33.13
2018-07-31T09:09:36.659Z,32.84
2018-07-31T09:12:05.252Z,32.98
2018-07-31T09:14:33.767Z,32.64
2018-07-31T09:17:02.159Z,33.02
2018-07-31T09:19:30.567Z,33.62
2018-07-31T09:21:59.087Z,33.46
2018-07-31T09:24:27.827Z,32.78
2018-07-31T09:26:56.295Z,33.04
2018-07-31T09:29:24.752Z,32.91
2018-07-31T09:31:53.112Z,32.91
2018-07-31T09:34:21.567Z,33.19
2018-07-31T09:36:50.313Z,32.93
2018-07-31T09:39:18.720Z,33.32
2018-07-31T09:41:47.252Z,33.68
2018-07-31T09:44:15.895Z,33.92
2018-07-31T09:46:44.400Z,33.78
2018-07-31T09:49:12.860Z,33.92
2018-07-31T09:51:41.337Z,33.74
2018-07-31T09:54:09.801Z,33.87
2018-07-31T09:56:38.288Z,33.81
2018-07-31T09:59:06.741Z,34.47
2018-07-31T10:01:35.154Z,34.81
2018-07-31T10:04:03.561Z,34.82
2018-07-31T10:06:32.346Z,34.63
2018-07-31T10:09:00.731Z,34.50
2018-07-31T10:11:29.123Z,34.40
2018-07-31T10:13:57.564Z,34.72
2018-07-31T10:16:26.061Z,34.87
2018-07-31T10:18:54.608Z,35.28
2018-07-31T10:21:23.206Z,35.30
2018-07-31T10:23:51.630Z,35.16
2018-07-31T10:26:20.123Z,35.21
2018-07-31T10:28:48.904Z,35.25
2018-07-31T10:31:17.323Z,35.31
2018-07-31T10:33:45.707Z,35.03
2018-07-31T10:36:14.296Z,34.52
2018-07-31T10:38:42.687Z,34.49
2018-07-31T10:41:11.187Z,34.65
2018-07-31T10:43:39.724Z,34.84
2018-07-31T10:46:08.167Z,35.24
2018-07-31T10:48:36.687Z,35.56
2018-07-31T10:51:05.581Z,35.73
2018-07-31T10:53:34.098Z,35.58
2018-07-31T10:56:02.569Z,35.60
2018-07-31T10:58:31.740Z,35.86
2018-07-31T11:01:00.171Z,36.11
2018-07-31T11:03:28.776Z,36.01
2018-07-31T11:05:57.290Z,36.01
2018-07-31T11:08:25.807Z,35.97
2018-07-31T11:10:54.239Z,36.43
2018-07-31T11:13:22.761Z,36.17
2018-07-31T11:15:51.419Z,36.40
2018-07-31T11:18:19.885Z,36.22
2018-07-31T11:20:48.368Z,36.18
2018-07-31T11:23:16.833Z,35.81
2018-07-31T11:25:45.331Z,35.75
2018-07-31T11:28:14.203Z,35.61
2018-07-31T11:30:42.677Z,35.38
2018-07-31T11:33:11.182Z,35.40
2018-07-31T11:35:39.615Z,35.65
2018-07-31T11:38:08.035Z,35.75
2018-07-31T11:40:36.412Z,35.95
2018-07-31T11:43:05.355Z,35.96
2018-07-31T11:45:33.775Z,36.18
2018-07-31T11:48:02.190Z,36.48
2018-07-31T11:50:30.679Z,36.36
2018-07-31T11:52:59.179Z,36.45
2018-07-31T11:55:27.673Z,36.45
2018-07-31T11:57:56.172Z,36.83
2018-07-31T12:00:24.594Z,36.71
2018-07-31T12:02:53.027Z,36.86
2018-07-31T12:05:21.683Z,36.76
2018-07-31T12:07:50.119Z,36.36
2018-07-31T12:10:18.543Z,36.56
2018-07-31T12:12:47.182Z,37.00
2018-07-31T12:15:15.695Z,37.16
2018-07-31T12:17:44.179Z,37.35
2018-07-31T12:20:12.771Z,37.60
2018-07-31T12:22:41.176Z,37.39
2018-07-31T12:25:09.567Z,37.36
2018-07-31T12:27:37.977Z,37.40
2018-07-31T12:30:08.903Z,37.13
2018-07-31T12:32:37.451Z,37.47
2018-07-31T12:35:06.011Z,37.06
2018-07-31T12:37:34.447Z,37.28
2018-07-31T12:40:03.275Z,36.70
2018-07-31T12:42:31.650Z,36.83
2018-07-31T12:45:00.057Z,36.25
2018-07-31T12:47:28.491Z,36.66
2018-07-31T12:49:57.335Z,36.52
2018-07-31T12:52:25.713Z,36.34
2018-07-31T12:54:54.227Z,37.01
2018-07-31T12:57:22.699Z,37.01
2018-07-31T12:59:51.200Z,36.98
2018-07-31T13:02:20.147Z,36.33
2018-07-31T13:04:48.650Z,36.16
2018-07-31T13:07:17.057Z,36.31
2018-07-31T13:09:45.882Z,35.92
2018-07-31T13:12:14.331Z,35.61
2018-07-31T13:14:42.771Z,35.65
2018-07-31T13:17:11.506Z,35.73
2018-07-31T13:19:40.231Z,36.02
2018-07-31T13:22:08.744Z,35.80
2018-07-31T13:24:37.295Z,35.74
2018-07-31T13:27:05.735Z,35.66
2018-07-31T13:29:34.203Z,35.36
2018-07-31T13:32:03.120Z,35.22
2018-07-31T13:34:32.221Z,35.36
2018-07-31T13:37:00.666Z,35.10
2018-07-31T13:39:29.384Z,35.15
2018-07-31T13:41:57.859Z,35.26
2018-07-31T13:44:27.903Z,35.31
2018-07-31T13:46:56.387Z,35.42
2018-07-31T13:49:24.883Z,35.72
2018-07-31T13:51:53.345Z,35.49
2018-07-31T13:54:22.045Z,35.74
2018-07-31T13:56:50.610Z,35.78
2018-07-31T13:59:19.103Z,35.89
2018-07-31T14:01:47.676Z,35.98
2018-07-31T14:04:16.646Z,35.98
2018-07-31T14:06:45.403Z,36.08
2018-07-31T14:09:14.064Z,36.25
2018-07-31T14:11:42.551Z,36.16
2018-07-31T14:14:11.011Z,36.41
2018-07-31T14:16:39.688Z,36.64
2018-07-31T14:19:08.265Z,36.88
2018-07-31T14:21:37.111Z,36.40
2018-07-31T14:24:05.779Z,36.68
2018-07-31T14:26:34.192Z,36.75
2018-07-31T14:29:02.690Z,36.90
2018-07-31T14:31:31.231Z,36.64
2018-07-31T14:33:59.811Z,36.33
2018-07-31T14:36:28.245Z,36.57
2018-07-31T14:38:56.792Z,36.78
2018-07-31T14:41:25.199Z,36.82
2018-07-31T14:43:53.787Z,36.62
2018-07-31T14:46:22.307Z,36.76
2018-07-31T14:48:50.815Z,36.48
2018-07-31T14:51:19.232Z,36.48
2018-07-31T14:53:47.755Z,36.36
2018-07-31T14:56:16.159Z,36.17
2018-07-31T14:58:44.546Z,36.38
2018-07-31T15:01:13.278Z,36.59
2018-07-31T15:03:41.731Z,36.69
2018-07-31T15:06:10.179Z,36.30
2018-07-31T15:08:39.820Z,36.28
2018-07-31T15:11:10.088Z,36.50
2018-07-31T15:13:38.906Z,36.17
2018-07-31T15:16:07.621Z,36.50
2018-07-31T15:18:36.020Z,36.72
2018-07-31T15:21:04.624Z,36.36
2018-07-31T15:23:33.064Z,35.88
2018-07-31T15:26:01.763Z,36.27
2018-07-31T15:28:30.428Z,35.99
2018-07-31T15:30:58.903Z,35.80
2018-07-31T15:33:27.347Z,35.81
2018-07-31T15:35:56.383Z,35.82
2018-07-31T15:38:25.147Z,35.91
2018-07-31T15:40:53.615Z,35.81
2018-07-31T15:43:22.295Z,36.03
2018-07-31T15:45:50.807Z,35.66
2018-07-31T15:48:19.227Z,35.44
2018-07-31T15:50:47.859Z,35.73
2018-07-31T15:53:16.315Z,35.79
2018-07-31T15:55:44.790Z,35.76
2018-07-31T15:58:13.351Z,35.77
2018-07-31T16:00:41.764Z,35.05
2018-07-31T16:03:10.274Z,35.45
2018-07-31T16:05:38.770Z,35.76
2018-07-31T16:08:07.216Z,35.79
2018-07-31T16:10:35.631Z,35.83
2018-07-31T16:13:04.083Z,35.91
2018-07-31T16:15:32.463Z,35.66
2018-07-31T16:18:01.851Z,35.46
2018-07-31T16:20:31.627Z,35.59
2018-07-31T16:23:00.069Z,35.53
2018-07-31T16:25:28.679Z,35.79
2018-07-31T16:27:57.188Z,35.50
2018-07-31T16:30:30.193Z,35.34
2018-07-31T16:32:58.915Z,35.43
2018-07-31T16:35:27.379Z,35.12
2018-07-31T16:37:55.835Z,35.46
2018-07-31T16:40:24.343Z,35.36
2018-07-31T16:42:52.834Z,35.53
2018-07-31T16:45:22.260Z,35.29
2018-07-31T16:47:50.776Z,34.90
2018-07-31T16:50:19.211Z,34.96
2018-07-31T16:52:47.694Z,35.06
2018-07-31T16:55:16.163Z,35.06
2018-07-31T16:57:44.611Z,35.16
2018-07-31T17:00:13.040Z,34.92
2018-07-31T17:02:41.618Z,35.23
2018-07-31T17:05:10.032Z,35.27
2018-07-31T17:07:38.522Z,35.32
2018-07-31T17:10:07.191Z,35.15
2018-07-31T17:12:35.658Z,34.94
2018-07-31T17:15:04.619Z,34.76
2018-07-31T17:17:33.242Z,34.55
2018-07-31T17:20:01.659Z,34.50
2018-07-31T17:22:30.235Z,34.69
2018-07-31T17:24:58.951Z,34.50
2018-07-31T17:27:27.478Z,34.31
2018-07-31T17:29:56.060Z,34.54
2018-07-31T17:32:24.823Z,34.55
2018-07-31T17:34:53.227Z,34.63
2018-07-31T17:37:21.644Z,34.71
2018-07-31T17:39:50.505Z,34.32
2018-07-31T17:42:18.898Z,34.47
2018-07-31T17:44:47.322Z,34.31
2018-07-31T17:47:16.243Z,33.96
2018-07-31T17:49:44.696Z,33.72
2018-07-31T17:52:13.093Z,33.74
2018-07-31T17:54:41.513Z,34.06
2018-07-31T17:57:10.218Z,33.95
2018-07-31T17:59:38.703Z,33.68
2018-07-31T18:02:07.985Z,33.56
2018-07-31T18:04:36.524Z,33.88
2018-07-31T18:07:04.975Z,33.50
2018-07-31T18:09:33.415Z,33.32
2018-07-31T18:12:01.943Z,33.60
2018-07-31T18:14:30.479Z,33.66
2018-07-31T18:16:58.904Z,33.51
2018-07-31T18:19:27.367Z,33.48
2018-07-31T18:21:55.767Z,33.21
2018-07-31T18:24:24.632Z,32.98
2018-07-31T18:26:53.064Z,32.79
2018-07-31T18:29:21.547Z,32.90
2018-07-31T18:31:50.211Z,33.04
2018-07-31T18:34:18.605Z,33.22
2018-07-31T18:36:46.979Z,32.99
2018-07-31T18:39:15.611Z,32.61
2018-07-31T18:41:44.030Z,32.52
2018-07-31T18:44:12.637Z,32.32
2018-07-31T18:46:41.687Z,31.89
2018-07-31T18:49:10.237Z,31.66
2018-07-31T18:51:38.700Z,31.60
2018-07-31T18:54:07.611Z,31.22
2018-07-31T18:56:36.748Z,31.17
2018-07-31T18:59:05.214Z,31.10
2018-07-31T19:01:33.910Z,30.94
2018-07-31T19:04:02.399Z,30.88
2018-07-31T19:06:30.865Z,31.39
2018-07-31T19:08:59.489Z,31.25
2018-07-31T19:11:28.346Z,31.11
2018-07-31T19:13:56.871Z,31.13
2018-07-31T19:16:25.679Z,31.29
2018-07-31T19:18:54.194Z,31.05
2018-07-31T19:21:22.853Z,30.98
2018-07-31T19:23:51.705Z,31.25
2018-07-31T19:26:20.235Z,30.79
2018-07-31T19:28:48.732Z,30.93
2018-07-31T19:31:17.522Z,30.83
2018-07-31T19:33:46.059Z,30.91
2018-07-31T19:36:15.221Z,30.76
2018-07-31T19:38:44.273Z,30.92
2018-07-31T19:41:13.186Z,30.86
2018-07-31T19:43:42.257Z,30.50
2018-07-31T19:46:10.950Z,30.63
2018-07-31T19:48:39.875Z,30.63
2018-07-31T19:51:09.058Z,30.75
2018-07-31T19:53:37.896Z,30.81
2018-07-31T19:56:06.874Z,30.07
2018-07-31T19:58:38.497Z,30.26
2018-07-31T20:01:08.765Z,30.04
2018-07-31T20:03:37.948Z,30.05
2018-07-31T20:06:06.987Z,30.17
2018-07-31T20:08:35.804Z,30.13
2018-07-31T20:11:05.037Z,29.62
2018-07-31T20:13:33.651Z,29.62
2018-07-31T20:16:02.550Z,29.15
2018-07-31T20:18:31.688Z,29.22
2018-07-31T20:21:03.579Z,28.89
2018-07-31T20:23:33.031Z,28.86
2018-07-31T20:26:02.106Z,28.80
2018-07-31T20:28:31.190Z,28.86
2018-07-31T20:31:00.252Z,28.96
2018-07-31T20:33:33.066Z,29.10
2018-07-31T20:36:03.041Z,29.28
2018-07-31T20:38:31.898Z,29.14
2018-07-31T20:41:01.377Z,29.15
2018-07-31T20:43:31.809Z,29.44
2018-07-31T20:46:01.043Z,29.08
2018-07-31T20:48:30.229Z,29.26
2018-07-31T20:50:59.616Z,29.09
2018-07-31T20:53:28.338Z,29.07
2018-07-31T20:55:56.949Z,28.96
2018-07-31T20:58:25.668Z,28.95
2018-07-31T21:00:54.259Z,28.77
2018-07-31T21:03:27.162Z,28.78
2018-07-31T21:05:56.092Z,28.65
2018-07-31T21:08:24.612Z,28.79
2018-07-31T21:10:53.483Z,28.81
2018-07-31T21:13:21.907Z,29.08
2018-07-31T21:15:50.376Z,28.94
2018-07-31T21:18:18.925Z,28.94
2018-07-31T21:20:47.668Z,28.77
2018-07-31T21:23:16.152Z,28.39
2018-07-31T21:25:48.615Z,29.01
2018-07-31T21:28:17.136Z,28.78
2018-07-31T21:30:48.582Z,28.67
2018-07-31T21:33:17.653Z,28.40
2018-07-31T21:35:47.419Z,28.70
2018-07-31T21:38:16.275Z,28.30
2018-07-31T21:40:47.382Z,28.56
2018-07-31T21:43:17.263Z,28.31
2018-07-31T21:45:45.869Z,28.36
2018-07-31T21:48:17.017Z,28.46
2018-07-31T21:50:45.665Z,28.57
2018-07-31T21:53:17.684Z,28.87
2018-07-31T21:55:50.459Z,28.22
2018-07-31T21:58:19.831Z,28.01
2018-07-31T22:00:56.297Z,28.11
2018-07-31T22:03:28.851Z,27.79
2018-07-31T22:05:58.794Z,27.73
2018-07-31T22:08:28.694Z,27.55
2018-07-31T22:11:00.207Z,27.39
2018-07-31T22:13:32.905Z,27.19
2018-07-31T22:16:01.451Z,27.07
2018-07-31T22:18:30.901Z,27.00
2018-07-31T22:21:01.127Z,27.11
2018-07-31T22:23:29.579Z,27.02
2018-07-31T22:25:58.355Z,27.02
2018-07-31T22:28:27.933Z,27.03
2018-07-31T22:30:57.379Z,26.91
2018-07-31T22:33:27.697Z,26.90
2018-07-31T22:35:56.183Z,26.84
2018-07-31T22:38:25.037Z,26.58
2018-07-31T22:40:56.276Z,26.37
2018-07-31T22:43:25.156Z,26.35
2018-07-31T22:45:53.711Z,26.22
2018-07-31T22:48:23.807Z,26.28
2018-07-31T22:50:52.386Z,26.36
2018-07-31T22:53:24.147Z,26.20
2018-07-31T22:55:54.361Z,26.10
2018-07-31T22:58:25.221Z,26.20
2018-07-31T23:00:54.008Z,25.87
2018-07-31T23:03:23.925Z,25.49
2018-07-31T23:05:54.711Z,25.29
2018-07-31T23:08:24.739Z,25.33
2018-07-31T23:10:55.908Z,25.44
2018-07-31T23:13:25.840Z,25.47
2018-07-31T23:15:57.234Z,25.75
2018-07-31T23:18:25.967Z,25.95
2018-07-31T23:20:54.534Z,25.51
2018-07-31T23:23:22.882Z,25.61
2018-07-31T23:25:51.307Z,25.49
2018-07-31T23:28:19.707Z,25.61
2018-07-31T23:30:48.290Z,25.63
2018-07-31T23:33:16.946Z,25.67
2018-07-31T23:35:45.371Z,25.72
2018-07-31T23:38:13.824Z,25.68
2018-07-31T23:40:42.300Z,25.82
2018-07-31T23:43:10.900Z,25.33
2018-07-31T23:45:40.219Z,24.88
2018-07-31T23:48:08.724Z,25.09
2018-07-31T23:50:37.311Z,25.20
2018-07-31T23:53:06.259Z,25.26
2018-07-31T23:55:34.679Z,25.49
2018-07-31T23:58:03.102Z,25.54
